Avon, Illinois
Current Conditions -  °F | °C
As of 1:55 PM on Thursday 18 Dec 2014 (Local Time) from KMQB Reporting Station
Overcast Overcast  
Wind Chill: 27°   Ceiling: 5000
Heat Index: 27°   Visibility: 10mi
Dew Point: 21°   Wind: 0mph
Humidity: 79%   Direction: NA
Pressure: 30.27"   Gusts: NA
Location:  40.66°N, 90.43°W
Report Text: KMQB 181955Z AUTO 00000KT 10SM OVC050 M03/M06 A3027 RMK AO2 T10271059
Loading
Personal Weather Stations






























Interactive Weather Map New forecast layout! Learn more

10-Day Weather Forecast

Advertisements
Track Severe Weather on mobile